createdAt,value
2024-03-07T00:00:16.207Z,21.90
2024-03-07T00:02:51.376Z,22.07
2024-03-07T00:05:19.882Z,24.10
2024-03-07T00:07:47.669Z,23.40
2024-03-07T00:10:16.627Z,24.40
2024-03-07T00:12:44.512Z,24.23
2024-03-07T00:15:12.884Z,21.57
2024-03-07T00:17:40.387Z,23.83
2024-03-07T00:20:15.162Z,20.13
2024-03-07T00:22:42.718Z,22.07
2024-03-07T00:25:10.263Z,21.83
2024-03-07T00:27:37.671Z,21.10
2024-03-07T00:30:10.285Z,29.10
2024-03-07T00:32:40.502Z,26.50
2024-03-07T00:35:09.782Z,19.47
2024-03-07T00:37:37.255Z,21.90
2024-03-07T00:40:04.607Z,19.00
2024-03-07T00:42:31.263Z,22.77
2024-03-07T00:44:59.088Z,22.57
2024-03-07T00:47:25.919Z,25.70
2024-03-07T00:49:52.605Z,22.07
2024-03-07T00:52:19.452Z,18.37
2024-03-07T00:54:46.147Z,17.83
2024-03-07T00:57:12.848Z,18.10
2024-03-07T00:59:39.935Z,21.50
2024-03-07T01:02:08.070Z,20.03
2024-03-07T01:04:34.994Z,20.53
2024-03-07T01:07:02.366Z,22.37
2024-03-07T01:09:30.080Z,17.60
2024-03-07T01:11:57.683Z,22.00
2024-03-07T01:14:25.155Z,18.93
2024-03-07T01:16:51.875Z,18.40
2024-03-07T01:19:18.746Z,22.07
2024-03-07T01:21:46.333Z,17.50
2024-03-07T01:24:13.081Z,21.57
2024-03-07T01:26:40.432Z,24.50
2024-03-07T01:29:08.336Z,21.60
2024-03-07T01:31:35.537Z,22.80
2024-03-07T01:34:02.766Z,18.23
2024-03-07T01:36:29.812Z,20.17
2024-03-07T01:38:56.990Z,19.87
2024-03-07T01:41:23.738Z,18.03
2024-03-07T01:43:50.868Z,21.87
2024-03-07T01:46:17.535Z,18.30
2024-03-07T01:48:44.872Z,23.83
2024-03-07T01:51:12.173Z,18.53
2024-03-07T01:53:39.568Z,19.20
2024-03-07T01:56:06.721Z,23.23
2024-03-07T01:58:34.181Z,21.83
2024-03-07T02:01:01.535Z,21.97
2024-03-07T02:03:29.152Z,18.93
2024-03-07T02:05:57.666Z,18.77
2024-03-07T02:08:24.885Z,21.67
2024-03-07T02:10:51.711Z,24.77
2024-03-07T02:13:18.649Z,23.87
2024-03-07T02:15:45.787Z,19.60
2024-03-07T02:18:13.027Z,22.20
2024-03-07T02:20:45.362Z,23.13
2024-03-07T02:23:12.152Z,20.90
2024-03-07T02:25:38.938Z,23.97
2024-03-07T02:28:06.145Z,24.43
2024-03-07T02:30:33.548Z,20.33
2024-03-07T02:33:07.405Z,21.17
2024-03-07T02:35:38.130Z,21.67
2024-03-07T02:38:06.279Z,19.53
2024-03-07T02:40:33.536Z,25.33
2024-03-07T02:43:00.789Z,19.97
2024-03-07T02:45:28.025Z,22.23
2024-03-07T02:47:55.411Z,21.80
2024-03-07T02:50:25.856Z,24.57
2024-03-07T02:52:53.716Z,22.63
2024-03-07T02:55:21.437Z,18.10
2024-03-07T02:57:48.738Z,19.97
2024-03-07T03:00:27.490Z,23.90
2024-03-07T03:02:55.161Z,21.03
2024-03-07T03:05:22.122Z,20.43
2024-03-07T03:07:55.839Z,24.33
2024-03-07T03:10:34.388Z,21.27
2024-03-07T03:13:02.014Z,21.27
2024-03-07T03:15:28.986Z,21.63
2024-03-07T03:17:58.305Z,20.67
2024-03-07T03:20:25.958Z,22.07
2024-03-07T03:23:10.506Z,19.40
2024-03-07T03:25:43.201Z,22.07
2024-03-07T03:28:11.266Z,19.30
2024-03-07T03:30:42.398Z,21.93
2024-03-07T03:33:09.297Z,27.10
2024-03-07T03:35:40.516Z,18.83
2024-03-07T03:38:08.475Z,21.23
2024-03-07T03:40:35.545Z,22.90
2024-03-07T03:43:02.881Z,23.03
2024-03-07T03:45:29.662Z,22.10
2024-03-07T03:47:56.901Z,21.17
2024-03-07T03:50:26.887Z,19.03
2024-03-07T03:52:54.067Z,20.33
2024-03-07T03:55:21.826Z,19.37
2024-03-07T03:57:48.668Z,19.17
2024-03-07T04:00:15.792Z,21.10
2024-03-07T04:02:49.125Z,21.80
2024-03-07T04:05:18.188Z,19.60
2024-03-07T04:07:45.619Z,20.23
2024-03-07T04:10:13.623Z,24.23
2024-03-07T04:12:41.912Z,22.80
2024-03-07T04:15:14.741Z,21.17
2024-03-07T04:17:42.029Z,21.73
2024-03-07T04:20:11.769Z,27.30
2024-03-07T04:22:40.061Z,18.30
2024-03-07T04:25:08.247Z,22.10
2024-03-07T04:27:37.986Z,25.60
2024-03-07T04:30:05.753Z,23.90
2024-03-07T04:32:32.984Z,21.43
2024-03-07T04:35:01.373Z,23.80
2024-03-07T04:37:28.303Z,22.70
2024-03-07T04:39:55.437Z,23.67
2024-03-07T04:42:22.530Z,23.03
2024-03-07T04:44:49.766Z,26.63
2024-03-07T04:47:16.560Z,24.73
2024-03-07T04:49:44.699Z,20.93
2024-03-07T04:52:11.791Z,21.67
2024-03-07T04:54:38.504Z,20.53
2024-03-07T04:57:06.837Z,25.67
2024-03-07T04:59:34.130Z,22.10
2024-03-07T05:02:01.701Z,26.40
2024-03-07T05:04:30.371Z,21.83
2024-03-07T05:06:58.873Z,23.87
2024-03-07T05:09:29.889Z,20.80
2024-03-07T05:11:56.812Z,23.23
2024-03-07T05:14:24.062Z,27.37
2024-03-07T05:17:06.353Z,23.77
2024-03-07T05:19:34.261Z,25.30
2024-03-07T05:22:01.697Z,25.87
2024-03-07T05:24:28.909Z,23.27
2024-03-07T05:26:56.212Z,24.40
2024-03-07T05:29:23.450Z,20.53
2024-03-07T05:31:50.644Z,21.10
2024-03-07T05:34:20.282Z,25.83
2024-03-07T05:36:48.047Z,26.93
2024-03-07T05:39:16.645Z,24.13
2024-03-07T05:41:49.237Z,27.07
2024-03-07T05:44:16.651Z,26.63
2024-03-07T05:46:50.706Z,26.03
2024-03-07T05:49:23.976Z,27.43
2024-03-07T05:51:51.090Z,23.23
2024-03-07T05:54:18.247Z,26.03
2024-03-07T05:56:44.886Z,27.00
2024-03-07T05:59:11.958Z,23.33
2024-03-07T06:01:39.373Z,29.87
2024-03-07T06:04:07.703Z,29.53
2024-03-07T06:06:36.448Z,27.20
2024-03-07T06:09:08.740Z,25.43
2024-03-07T06:11:39.908Z,27.53
2024-03-07T06:14:07.952Z,28.20
2024-03-07T06:16:37.309Z,27.57
2024-03-07T06:19:05.902Z,30.67
2024-03-07T06:21:33.862Z,22.87
2024-03-07T06:24:01.663Z,26.47
2024-03-07T06:26:42.312Z,24.67
2024-03-07T06:29:12.486Z,29.50
2024-03-07T06:31:39.596Z,25.73
2024-03-07T06:34:06.347Z,30.67
2024-03-07T06:36:33.848Z,32.90
2024-03-07T06:39:00.702Z,29.57
2024-03-07T06:41:27.669Z,27.77
2024-03-07T06:43:56.278Z,24.73
2024-03-07T06:46:23.559Z,30.27
2024-03-07T06:48:50.428Z,24.07
2024-03-07T06:51:19.032Z,28.63
2024-03-07T06:53:49.664Z,28.53
2024-03-07T06:56:17.596Z,27.03
2024-03-07T06:58:49.294Z,28.33
2024-03-07T07:01:17.239Z,27.30
2024-03-07T07:03:45.283Z,27.37
2024-03-07T07:06:12.923Z,26.40
2024-03-07T07:08:40.356Z,24.90
2024-03-07T07:11:07.363Z,26.40
2024-03-07T07:13:34.432Z,25.00
2024-03-07T07:16:02.259Z,28.77
2024-03-07T07:18:29.504Z,28.73
2024-03-07T07:20:57.655Z,23.73
2024-03-07T07:23:25.075Z,26.53
2024-03-07T07:25:52.376Z,24.87
2024-03-07T07:28:19.078Z,25.67
2024-03-07T07:30:47.109Z,27.33
2024-03-07T07:33:15.153Z,28.17
2024-03-07T07:35:42.755Z,25.30
2024-03-07T07:38:12.017Z,26.57
2024-03-07T07:40:39.884Z,26.63
2024-03-07T07:43:07.432Z,28.00
2024-03-07T07:45:36.995Z,25.63
2024-03-07T07:48:04.445Z,24.53
2024-03-07T07:50:31.727Z,26.03
2024-03-07T07:52:59.454Z,27.63
2024-03-07T07:55:28.049Z,29.63
2024-03-07T07:57:56.466Z,28.97
2024-03-07T08:00:29.580Z,28.60
2024-03-07T08:03:02.241Z,31.73
2024-03-07T08:05:31.366Z,32.47
2024-03-07T08:08:08.888Z,30.40
2024-03-07T08:10:37.053Z,31.37
2024-03-07T08:13:06.916Z,30.40
2024-03-07T08:15:33.766Z,35.03
2024-03-07T08:18:01.287Z,36.50
2024-03-07T08:20:29.072Z,32.50
2024-03-07T08:22:56.721Z,37.77
2024-03-07T08:25:25.958Z,38.50
2024-03-07T08:27:54.587Z,35.70
2024-03-07T08:30:21.493Z,33.57
2024-03-07T08:32:50.351Z,34.63
2024-03-07T08:35:17.627Z,39.17
2024-03-07T08:37:46.542Z,33.53
2024-03-07T08:40:20.220Z,32.40
2024-03-07T08:43:05.578Z,34.80
2024-03-07T08:45:35.265Z,32.97
2024-03-07T08:48:05.248Z,32.77
2024-03-07T08:50:34.965Z,32.87
2024-03-07T08:53:05.657Z,30.77
2024-03-07T08:55:32.540Z,32.40
2024-03-07T08:57:59.669Z,37.17
2024-03-07T09:00:30.221Z,31.17
2024-03-07T09:03:00.215Z,28.00
2024-03-07T09:05:28.523Z,29.67
2024-03-07T09:07:56.174Z,27.63
2024-03-07T09:10:22.924Z,27.33
2024-03-07T09:12:52.931Z,27.27
2024-03-07T09:15:22.381Z,23.87
2024-03-07T09:17:49.418Z,26.70
2024-03-07T09:20:16.737Z,24.70
2024-03-07T09:22:44.552Z,24.30
2024-03-07T09:25:11.624Z,26.30
2024-03-07T09:27:38.816Z,24.43
2024-03-07T09:30:10.383Z,25.07
2024-03-07T09:32:38.523Z,27.33
2024-03-07T09:35:08.310Z,25.17
2024-03-07T09:37:34.933Z,25.17
2024-03-07T09:40:01.632Z,27.87
2024-03-07T09:42:29.051Z,24.13
2024-03-07T09:44:57.713Z,29.43
2024-03-07T09:47:24.490Z,27.20
2024-03-07T09:49:53.039Z,30.93
2024-03-07T09:52:21.717Z,30.97
2024-03-07T09:54:48.428Z,28.40
2024-03-07T09:57:15.730Z,23.47
2024-03-07T09:59:47.391Z,23.83
2024-03-07T10:02:16.474Z,27.47
2024-03-07T10:04:46.324Z,22.27
2024-03-07T10:07:14.874Z,27.27
2024-03-07T10:09:42.932Z,22.23
2024-03-07T10:12:16.379Z,30.00
2024-03-07T10:14:53.663Z,25.90
2024-03-07T10:17:20.360Z,23.70
2024-03-07T10:19:52.018Z,24.97
2024-03-07T10:22:19.723Z,22.67
2024-03-07T10:24:59.675Z,23.00
2024-03-07T10:27:29.042Z,26.23
2024-03-07T10:29:56.945Z,19.80
2024-03-07T10:32:24.257Z,19.33
2024-03-07T10:34:55.775Z,20.47
2024-03-07T10:37:22.426Z,24.47
2024-03-07T10:39:52.509Z,22.63
2024-03-07T10:42:20.441Z,20.43
2024-03-07T10:44:48.829Z,24.13
2024-03-07T10:47:18.832Z,22.30
2024-03-07T10:50:17.139Z,22.80
2024-03-07T10:52:58.996Z,23.03
2024-03-07T10:55:39.647Z,24.17
2024-03-07T10:58:21.865Z,24.23
2024-03-07T11:00:49.170Z,23.97
2024-03-07T11:03:16.503Z,28.30
2024-03-07T11:05:44.821Z,22.53
2024-03-07T11:08:15.199Z,23.80
2024-03-07T11:10:42.106Z,26.20
2024-03-07T11:13:13.129Z,27.63
2024-03-07T11:15:43.691Z,26.43
2024-03-07T11:18:13.898Z,28.30
2024-03-07T11:20:41.989Z,24.03
2024-03-07T11:23:33.908Z,22.67
2024-03-07T11:26:11.418Z,28.83
2024-03-07T11:28:39.834Z,21.80
2024-03-07T11:31:16.197Z,23.57
2024-03-07T11:33:44.869Z,22.33
2024-03-07T11:36:13.139Z,22.87
2024-03-07T11:38:49.754Z,24.77
2024-03-07T11:41:20.538Z,20.93
2024-03-07T11:43:47.868Z,19.70
2024-03-07T11:46:18.040Z,20.93
2024-03-07T11:48:45.440Z,18.23
2024-03-07T11:51:18.612Z,21.47
2024-03-07T11:53:48.782Z,19.23
2024-03-07T11:56:17.642Z,20.90
2024-03-07T11:58:46.043Z,19.60
2024-03-07T12:01:14.872Z,22.10
2024-03-07T12:03:41.938Z,19.23
2024-03-07T12:06:13.824Z,24.60
2024-03-07T12:08:42.863Z,19.33
2024-03-07T12:11:13.834Z,24.27
2024-03-07T12:13:41.764Z,21.33
2024-03-07T12:16:09.338Z,22.37
2024-03-07T12:18:37.379Z,22.03
2024-03-07T12:21:07.855Z,24.53
2024-03-07T12:23:34.844Z,24.83
2024-03-07T12:26:05.739Z,31.00
2024-03-07T12:28:36.956Z,23.43
2024-03-07T12:31:05.110Z,21.33
2024-03-07T12:33:33.557Z,20.73
2024-03-07T12:36:09.615Z,24.63
2024-03-07T12:38:38.470Z,25.83
2024-03-07T12:41:14.666Z,21.90
2024-03-07T12:43:44.956Z,17.93
2024-03-07T12:46:16.414Z,21.60
2024-03-07T12:48:45.943Z,18.03
2024-03-07T12:51:18.299Z,21.70
2024-03-07T12:53:47.488Z,21.43
2024-03-07T12:56:17.466Z,20.53
2024-03-07T12:58:47.508Z,23.93
2024-03-07T13:01:15.148Z,19.70
2024-03-07T13:03:43.824Z,22.27
2024-03-07T13:06:12.093Z,20.87
2024-03-07T13:08:38.857Z,24.47
2024-03-07T13:11:06.839Z,26.77
2024-03-07T13:13:33.695Z,25.00
2024-03-07T13:16:00.693Z,25.50
2024-03-07T13:18:27.640Z,21.70
2024-03-07T13:20:54.418Z,20.80
2024-03-07T13:23:21.374Z,23.03
2024-03-07T13:25:49.824Z,25.93
2024-03-07T13:28:25.410Z,23.60
2024-03-07T13:30:55.591Z,19.93
2024-03-07T13:33:22.417Z,25.27
2024-03-07T13:35:49.523Z,23.60
2024-03-07T13:38:16.603Z,23.03
2024-03-07T13:40:43.355Z,25.70
2024-03-07T13:43:10.351Z,19.57
2024-03-07T13:45:41.076Z,28.07
2024-03-07T13:48:09.336Z,21.20
2024-03-07T13:50:51.022Z,23.03
2024-03-07T13:53:24.024Z,25.00
2024-03-07T13:56:13.910Z,23.20
2024-03-07T13:59:46.783Z,23.83
2024-03-07T14:02:45.573Z,22.20
2024-03-07T14:05:33.357Z,22.43
2024-03-07T14:08:37.299Z,24.33
2024-03-07T14:11:30.994Z,24.50
2024-03-07T14:14:27.471Z,23.93
2024-03-07T14:17:07.566Z,24.93
2024-03-07T14:20:19.945Z,26.90
2024-03-07T14:23:07.692Z,30.83
2024-03-07T14:26:14.812Z,26.60
2024-03-07T14:28:42.609Z,29.33
2024-03-07T14:31:12.527Z,31.90
2024-03-07T14:34:07.263Z,30.77
2024-03-07T14:36:46.188Z,28.53
2024-03-07T14:39:23.407Z,28.30
2024-03-07T14:42:02.055Z,25.67
2024-03-07T14:44:29.616Z,33.20
2024-03-07T14:47:01.578Z,28.77
2024-03-07T14:49:29.580Z,28.10
2024-03-07T14:52:00.569Z,28.60
2024-03-07T14:54:28.935Z,28.83
2024-03-07T14:56:56.003Z,26.07
2024-03-07T14:59:23.672Z,30.13
2024-03-07T15:01:51.545Z,24.33
2024-03-07T15:04:19.152Z,26.03
2024-03-07T15:06:46.908Z,25.17
2024-03-07T15:09:14.814Z,29.23
2024-03-07T15:11:41.938Z,18.57
2024-03-07T15:14:12.276Z,20.63
2024-03-07T15:16:40.243Z,23.23
2024-03-07T15:19:09.051Z,23.03
2024-03-07T15:21:38.723Z,26.87
2024-03-07T15:24:06.039Z,20.80
2024-03-07T15:26:32.976Z,23.60
2024-03-07T15:29:01.582Z,17.53
2024-03-07T15:31:28.572Z,20.17
2024-03-07T15:33:55.702Z,19.80
2024-03-07T15:36:23.319Z,23.80
2024-03-07T15:38:50.744Z,20.10
2024-03-07T15:41:17.652Z,23.43
2024-03-07T15:43:44.730Z,23.10
2024-03-07T15:46:23.642Z,18.53
2024-03-07T15:48:50.821Z,26.50
2024-03-07T15:51:18.729Z,20.77
2024-03-07T15:53:45.939Z,21.37
2024-03-07T15:56:14.623Z,26.13
2024-03-07T15:58:41.491Z,18.93
2024-03-07T16:01:08.354Z,21.40
2024-03-07T16:03:35.041Z,19.47
2024-03-07T16:06:02.773Z,21.13
2024-03-07T16:08:30.186Z,17.83
2024-03-07T16:10:56.885Z,17.67
2024-03-07T16:13:25.164Z,16.47
2024-03-07T16:15:52.628Z,15.50
2024-03-07T16:18:23.766Z,16.87
2024-03-07T16:20:50.661Z,15.03
2024-03-07T16:23:18.094Z,15.90
2024-03-07T16:25:45.401Z,21.40
2024-03-07T16:28:13.121Z,17.43
2024-03-07T16:30:45.443Z,17.70
2024-03-07T16:33:13.181Z,15.43
2024-03-07T16:35:40.457Z,18.37
2024-03-07T16:38:10.467Z,18.43
2024-03-07T16:40:42.631Z,17.47
2024-03-07T16:43:12.515Z,19.03
2024-03-07T16:45:40.509Z,18.43
2024-03-07T16:48:11.917Z,15.57
2024-03-07T16:50:41.460Z,16.03
2024-03-07T16:53:08.834Z,13.30
2024-03-07T16:55:40.007Z,18.90
2024-03-07T16:58:14.006Z,13.00
2024-03-07T17:00:43.299Z,14.67
2024-03-07T17:03:11.531Z,14.43
2024-03-07T17:05:41.117Z,12.33
2024-03-07T17:08:09.031Z,13.80
2024-03-07T17:10:39.890Z,17.03
2024-03-07T17:13:14.309Z,14.37
2024-03-07T17:15:43.498Z,15.50
2024-03-07T17:18:11.777Z,16.30
2024-03-07T17:20:41.867Z,16.57
2024-03-07T17:23:09.488Z,15.53
2024-03-07T17:25:36.922Z,14.53
2024-03-07T17:28:04.274Z,19.53
2024-03-07T17:30:30.949Z,18.20
2024-03-07T17:32:59.812Z,14.53
2024-03-07T17:35:29.301Z,16.50
2024-03-07T17:37:56.457Z,14.37
2024-03-07T17:40:27.464Z,21.63
2024-03-07T17:42:55.002Z,14.47
2024-03-07T17:45:29.626Z,14.80
2024-03-07T17:48:00.720Z,14.77
2024-03-07T17:50:28.450Z,17.27
2024-03-07T17:52:59.312Z,16.73
2024-03-07T17:55:26.005Z,24.33
2024-03-07T17:57:52.685Z,18.87
2024-03-07T18:00:28.889Z,15.27
2024-03-07T18:02:56.668Z,17.23
2024-03-07T18:05:27.072Z,13.77
2024-03-07T18:07:57.942Z,21.23
2024-03-07T18:10:32.206Z,16.23
2024-03-07T18:12:58.886Z,18.20
2024-03-07T18:15:28.770Z,17.00
2024-03-07T18:17:59.742Z,14.57
2024-03-07T18:20:28.194Z,16.30
2024-03-07T18:22:55.823Z,15.23
2024-03-07T18:25:25.965Z,18.13
2024-03-07T18:27:59.440Z,18.40
2024-03-07T18:30:26.623Z,15.67
2024-03-07T18:32:53.708Z,16.43
2024-03-07T18:35:23.788Z,13.83
2024-03-07T18:37:51.890Z,15.67
2024-03-07T18:40:24.119Z,12.43
2024-03-07T18:42:52.316Z,18.37
2024-03-07T18:45:26.238Z,18.50
2024-03-07T18:47:54.182Z,16.20
2024-03-07T18:50:24.020Z,15.40
2024-03-07T18:52:52.623Z,15.70
2024-03-07T18:55:22.804Z,13.67
2024-03-07T18:57:51.899Z,15.57
2024-03-07T19:00:38.085Z,13.90
2024-03-07T19:03:05.441Z,16.53
2024-03-07T19:05:33.930Z,16.53
2024-03-07T19:08:07.612Z,13.70
2024-03-07T19:10:34.261Z,17.30
2024-03-07T19:13:01.118Z,15.10
2024-03-07T19:15:28.107Z,15.77
2024-03-07T19:17:55.451Z,22.03
2024-03-07T19:20:22.863Z,14.57
2024-03-07T19:22:53.841Z,14.10
2024-03-07T19:25:20.844Z,17.23
2024-03-07T19:27:51.560Z,15.07
2024-03-07T19:30:19.096Z,15.17
2024-03-07T19:32:46.814Z,13.37
2024-03-07T19:35:17.308Z,16.47
2024-03-07T19:37:52.576Z,15.53
2024-03-07T19:40:23.136Z,14.77
2024-03-07T19:42:50.802Z,14.57
2024-03-07T19:45:21.707Z,15.33
2024-03-07T19:47:49.393Z,16.33
2024-03-07T19:50:19.319Z,15.57
2024-03-07T19:52:48.400Z,16.73
2024-03-07T19:55:20.761Z,15.13
2024-03-07T19:57:49.456Z,18.37
2024-03-07T20:00:17.537Z,16.73
2024-03-07T20:02:45.710Z,17.57
2024-03-07T20:05:26.645Z,15.60
2024-03-07T20:07:55.141Z,13.87
2024-03-07T20:10:21.930Z,16.43
2024-03-07T20:12:48.777Z,12.77
2024-03-07T20:15:15.731Z,13.33
2024-03-07T20:17:44.631Z,16.63
2024-03-07T20:20:18.116Z,16.57
2024-03-07T20:22:48.910Z,17.97
2024-03-07T20:25:16.426Z,16.67
2024-03-07T20:27:44.446Z,17.43
2024-03-07T20:30:12.404Z,15.83
2024-03-07T20:32:39.530Z,16.07
2024-03-07T20:35:09.342Z,13.40
2024-03-07T20:37:36.633Z,14.40
2024-03-07T20:40:11.355Z,14.50
2024-03-07T20:42:39.514Z,14.87
2024-03-07T20:45:10.188Z,15.20
2024-03-07T20:47:46.329Z,16.33
2024-03-07T20:50:16.633Z,15.13
2024-03-07T20:52:46.896Z,15.27
2024-03-07T20:55:18.363Z,17.63
2024-03-07T20:57:53.280Z,19.10
2024-03-07T21:00:34.308Z,15.97
2024-03-07T21:03:01.617Z,16.37
2024-03-07T21:05:28.384Z,15.20
2024-03-07T21:07:55.106Z,13.17
2024-03-07T21:10:29.538Z,13.37
2024-03-07T21:12:56.489Z,14.97
2024-03-07T21:15:23.917Z,12.70
2024-03-07T21:17:53.583Z,15.33
2024-03-07T21:20:21.951Z,15.30
2024-03-07T21:22:51.131Z,18.73
2024-03-07T21:25:19.516Z,16.00
2024-03-07T21:27:47.835Z,14.97
2024-03-07T21:30:15.146Z,17.57
2024-03-07T21:32:42.928Z,17.13
2024-03-07T21:35:12.634Z,18.10
2024-03-07T21:37:43.404Z,19.10
2024-03-07T21:40:13.803Z,19.00
2024-03-07T21:42:40.738Z,18.93
2024-03-07T21:45:07.837Z,17.77
2024-03-07T21:47:37.244Z,16.03
2024-03-07T21:50:05.708Z,24.13
2024-03-07T21:52:32.405Z,19.75
2024-03-07T21:54:59.477Z,19.27
2024-03-07T21:57:26.611Z,20.40
2024-03-07T21:59:55.001Z,17.77
2024-03-07T22:02:22.226Z,16.70
2024-03-07T22:04:52.929Z,17.77
2024-03-07T22:07:20.371Z,16.07
2024-03-07T22:09:47.580Z,21.70
2024-03-07T22:12:15.669Z,19.23
2024-03-07T22:14:43.889Z,16.23
2024-03-07T22:17:10.522Z,20.47
2024-03-07T22:19:40.104Z,17.50
2024-03-07T22:22:06.998Z,18.47
2024-03-07T22:24:34.209Z,17.97
2024-03-07T22:27:01.710Z,24.23
2024-03-07T22:29:29.628Z,17.67
2024-03-07T22:31:57.429Z,17.53
2024-03-07T22:34:25.918Z,23.80
2024-03-07T22:36:53.379Z,19.63
2024-03-07T22:39:20.551Z,19.57
2024-03-07T22:41:47.991Z,20.67
2024-03-07T22:44:14.819Z,20.23
2024-03-07T22:46:41.612Z,18.63
2024-03-07T22:49:08.952Z,21.97
2024-03-07T22:51:35.731Z,20.83
2024-03-07T22:54:02.745Z,20.00
2024-03-07T22:56:29.549Z,21.53
2024-03-07T22:58:56.493Z,20.40
2024-03-07T23:01:31.206Z,21.30
2024-03-07T23:03:58.624Z,21.07
2024-03-07T23:06:26.476Z,17.87
2024-03-07T23:08:54.009Z,23.37
2024-03-07T23:11:21.201Z,22.27
2024-03-07T23:13:49.468Z,18.67
2024-03-07T23:16:16.294Z,21.60
2024-03-07T23:18:43.474Z,20.60
2024-03-07T23:21:10.851Z,23.40
2024-03-07T23:23:37.753Z,19.47
2024-03-07T23:26:04.593Z,20.33
2024-03-07T23:28:31.304Z,25.03
2024-03-07T23:30:58.719Z,24.37
2024-03-07T23:33:25.482Z,20.47
2024-03-07T23:35:52.368Z,23.37
2024-03-07T23:38:19.573Z,21.50
2024-03-07T23:40:46.211Z,21.30
2024-03-07T23:43:14.100Z,24.53
2024-03-07T23:45:41.183Z,22.23
2024-03-07T23:48:08.304Z,21.33
2024-03-07T23:50:34.977Z,18.63
2024-03-07T23:53:02.497Z,21.23
2024-03-07T23:55:29.140Z,23.70
2024-03-07T23:57:56.226Z,24.50
